sensor_id;sensor_type;location;lat;lon;timestamp;P1;durP1;ratioP1;P2;durP2;ratioP2
44981;SDS011;30716;41.740;-70.400;2022-09-03T00:10:48;0.37;;;0.20;;
44981;SDS011;30716;41.740;-70.400;2022-09-03T00:13:22;0.05;;;0.05;;
44981;SDS011;30716;41.740;-70.400;2022-09-03T00:15:57;0.00;;;0.00;;
44981;SDS011;30716;41.740;-70.400;2022-09-03T00:18:29;0.30;;;0.10;;
44981;SDS011;30716;41.740;-70.400;2022-09-03T00:21:00;0.15;;;0.03;;
44981;SDS011;30716;41.740;-70.400;2022-09-03T00:23:40;0.10;;;0.10;;
44981;SDS011;30716;41.740;-70.400;2022-09-03T00:31:22;0.20;;;0.10;;
44981;SDS011;30716;41.740;-70.400;2022-09-03T00:34:02;0.17;;;0.10;;
44981;SDS011;30716;41.740;-70.400;2022-09-03T00:36:40;0.30;;;0.17;;
44981;SDS011;30716;41.740;-70.400;2022-09-03T00:39:25;0.10;;;0.10;;
44981;SDS011;30716;41.740;-70.400;2022-09-03T00:41:55;0.30;;;0.20;;
44981;SDS011;30716;41.740;-70.400;2022-09-03T00:53:19;0.10;;;0.10;;
44981;SDS011;30716;41.740;-70.400;2022-09-03T00:56:03;0.20;;;0.20;;
44981;SDS011;30716;41.740;-70.400;2022-09-03T01:07:40;0.20;;;0.13;;
44981;SDS011;30716;41.740;-70.400;2022-09-03T01:10:50;0.10;;;0.10;;
44981;SDS011;30716;41.740;-70.400;2022-09-03T01:13:38;0.95;;;0.10;;
44981;SDS011;30716;41.740;-70.400;2022-09-03T01:16:35;0.20;;;0.10;;
44981;SDS011;30716;41.740;-70.400;2022-09-03T01:19:09;0.00;;;0.00;;
44981;SDS011;30716;41.740;-70.400;2022-09-03T01:24:44;0.17;;;0.10;;
44981;SDS011;30716;41.740;-70.400;2022-09-03T01:30:23;0.32;;;0.10;;
44981;SDS011;30716;41.740;-70.400;2022-09-03T01:35:55;0.17;;;0.17;;
44981;SDS011;30716;41.740;-70.400;2022-09-03T01:38:40;0.13;;;0.10;;
44981;SDS011;30716;41.740;-70.400;2022-09-03T01:41:20;0.35;;;0.25;;
44981;SDS011;30716;41.740;-70.400;2022-09-03T01:44:31;0.00;;;0.00;;
44981;SDS011;30716;41.740;-70.400;2022-09-03T01:47:17;0.20;;;0.20;;
44981;SDS011;30716;41.740;-70.400;2022-09-03T01:59:01;0.10;;;0.10;;
44981;SDS011;30716;41.740;-70.400;2022-09-03T02:01:32;0.15;;;0.10;;
44981;SDS011;30716;41.740;-70.400;2022-09-03T02:04:13;0.00;;;0.00;;
44981;SDS011;30716;41.740;-70.400;2022-09-03T02:06:49;0.30;;;0.10;;
44981;SDS011;30716;41.740;-70.400;2022-09-03T02:09:17;0.05;;;0.05;;
44981;SDS011;30716;41.740;-70.400;2022-09-03T02:11:45;0.10;;;0.10;;
44981;SDS011;30716;41.740;-70.400;2022-09-03T02:14:17;0.22;;;0.10;;
44981;SDS011;30716;41.740;-70.400;2022-09-03T02:16:44;0.00;;;0.00;;
44981;SDS011;30716;41.740;-70.400;2022-09-03T02:19:12;1.05;;;0.20;;
44981;SDS011;30716;41.740;-70.400;2022-09-03T02:21:48;0.10;;;0.10;;
44981;SDS011;30716;41.740;-70.400;2022-09-03T02:24:17;0.20;;;0.10;;
44981;SDS011;30716;41.740;-70.400;2022-09-03T02:26:44;0.20;;;0.10;;
44981;SDS011;30716;41.740;-70.400;2022-09-03T02:29:11;0.25;;;0.13;;
44981;SDS011;30716;41.740;-70.400;2022-09-03T02:31:40;0.15;;;0.13;;
44981;SDS011;30716;41.740;-70.400;2022-09-03T02:34:06;0.10;;;0.10;;
44981;SDS011;30716;41.740;-70.400;2022-09-03T02:36:36;0.45;;;0.10;;
44981;SDS011;30716;41.740;-70.400;2022-09-03T02:39:07;0.75;;;0.22;;
44981;SDS011;30716;41.740;-70.400;2022-09-03T02:41:34;0.15;;;0.10;;
44981;SDS011;30716;41.740;-70.400;2022-09-03T02:47:00;0.22;;;0.10;;
44981;SDS011;30716;41.740;-70.400;2022-09-03T02:49:30;0.05;;;0.03;;
44981;SDS011;30716;41.740;-70.400;2022-09-03T02:52:12;0.00;;;0.00;;
44981;SDS011;30716;41.740;-70.400;2022-09-03T02:54:38;0.30;;;0.10;;
44981;SDS011;30716;41.740;-70.400;2022-09-03T02:57:08;0.20;;;0.05;;
44981;SDS011;30716;41.740;-70.400;2022-09-03T02:59:38;0.57;;;0.20;;
44981;SDS011;30716;41.740;-70.400;2022-09-03T03:02:08;0.03;;;0.03;;
44981;SDS011;30716;41.740;-70.400;2022-09-03T03:04:35;0.20;;;0.10;;
44981;SDS011;30716;41.740;-70.400;2022-09-03T03:07:03;0.15;;;0.10;;
44981;SDS011;30716;41.740;-70.400;2022-09-03T03:09:30;0.52;;;0.20;;
44981;SDS011;30716;41.740;-70.400;2022-09-03T03:11:57;0.20;;;0.20;;
44981;SDS011;30716;41.740;-70.400;2022-09-03T03:14:24;0.30;;;0.20;;
44981;SDS011;30716;41.740;-70.400;2022-09-03T03:16:50;1.42;;;0.30;;
44981;SDS011;30716;41.740;-70.400;2022-09-03T03:19:16;0.20;;;0.17;;
44981;SDS011;30716;41.740;-70.400;2022-09-03T03:21:43;0.00;;;0.00;;
44981;SDS011;30716;41.740;-70.400;2022-09-03T03:24:09;0.15;;;0.10;;
44981;SDS011;30716;41.740;-70.400;2022-09-03T03:26:36;0.40;;;0.20;;
44981;SDS011;30716;41.740;-70.400;2022-09-03T03:29:03;0.52;;;0.10;;
44981;SDS011;30716;41.740;-70.400;2022-09-03T03:31:29;0.30;;;0.20;;
44981;SDS011;30716;41.740;-70.400;2022-09-03T03:33:57;0.70;;;0.08;;
44981;SDS011;30716;41.740;-70.400;2022-09-03T03:36:26;0.35;;;0.20;;
44981;SDS011;30716;41.740;-70.400;2022-09-03T03:38:56;1.55;;;0.20;;
44981;SDS011;30716;41.740;-70.400;2022-09-03T03:41:24;0.10;;;0.10;;
44981;SDS011;30716;41.740;-70.400;2022-09-03T03:43:52;0.10;;;0.10;;
44981;SDS011;30716;41.740;-70.400;2022-09-03T03:46:20;0.13;;;0.10;;
44981;SDS011;30716;41.740;-70.400;2022-09-03T03:48:48;0.63;;;0.10;;
44981;SDS011;30716;41.740;-70.400;2022-09-03T03:51:15;0.32;;;0.10;;
44981;SDS011;30716;41.740;-70.400;2022-09-03T03:53:42;0.20;;;0.10;;
44981;SDS011;30716;41.740;-70.400;2022-09-03T03:56:09;0.32;;;0.30;;
44981;SDS011;30716;41.740;-70.400;2022-09-03T03:58:37;0.10;;;0.05;;
44981;SDS011;30716;41.740;-70.400;2022-09-03T04:01:15;0.30;;;0.10;;
44981;SDS011;30716;41.740;-70.400;2022-09-03T04:03:47;0.15;;;0.10;;
44981;SDS011;30716;41.740;-70.400;2022-09-03T04:06:14;0.17;;;0.10;;
44981;SDS011;30716;41.740;-70.400;2022-09-03T04:08:42;0.05;;;0.05;;
44981;SDS011;30716;41.740;-70.400;2022-09-03T04:11:10;0.40;;;0.10;;
44981;SDS011;30716;41.740;-70.400;2022-09-03T04:13:39;0.85;;;0.45;;
44981;SDS011;30716;41.740;-70.400;2022-09-03T04:16:08;0.50;;;0.10;;
44981;SDS011;30716;41.740;-70.400;2022-09-03T04:18:38;0.20;;;0.05;;
44981;SDS011;30716;41.740;-70.400;2022-09-03T04:21:07;0.80;;;0.30;;
44981;SDS011;30716;41.740;-70.400;2022-09-03T04:23:36;0.30;;;0.20;;
44981;SDS011;30716;41.740;-70.400;2022-09-03T04:26:03;0.40;;;0.30;;
44981;SDS011;30716;41.740;-70.400;2022-09-03T04:28:30;0.10;;;0.10;;
44981;SDS011;30716;41.740;-70.400;2022-09-03T04:31:01;0.10;;;0.10;;
44981;SDS011;30716;41.740;-70.400;2022-09-03T04:33:32;0.40;;;0.20;;
44981;SDS011;30716;41.740;-70.400;2022-09-03T04:38:36;0.47;;;0.20;;
44981;SDS011;30716;41.740;-70.400;2022-09-03T04:41:05;0.35;;;0.10;;
44981;SDS011;30716;41.740;-70.400;2022-09-03T04:43:32;0.10;;;0.10;;
44981;SDS011;30716;41.740;-70.400;2022-09-03T04:45:59;0.35;;;0.35;;
44981;SDS011;30716;41.740;-70.400;2022-09-03T04:48:27;0.32;;;0.20;;
44981;SDS011;30716;41.740;-70.400;2022-09-03T04:51:00;0.50;;;0.32;;
44981;SDS011;30716;41.740;-70.400;2022-09-03T04:53:32;0.30;;;0.10;;
44981;SDS011;30716;41.740;-70.400;2022-09-03T04:55:59;0.65;;;0.20;;
44981;SDS011;30716;41.740;-70.400;2022-09-03T04:58:26;0.20;;;0.20;;
44981;SDS011;30716;41.740;-70.400;2022-09-03T05:00:52;1.05;;;0.20;;
44981;SDS011;30716;41.740;-70.400;2022-09-03T05:03:19;0.40;;;0.20;;
44981;SDS011;30716;41.740;-70.400;2022-09-03T05:05:55;0.13;;;0.10;;
44981;SDS011;30716;41.740;-70.400;2022-09-03T05:08:21;0.30;;;0.17;;
44981;SDS011;30716;41.740;-70.400;2022-09-03T05:10:48;0.75;;;0.20;;
44981;SDS011;30716;41.740;-70.400;2022-09-03T05:13:14;0.68;;;0.20;;
44981;SDS011;30716;41.740;-70.400;2022-09-03T05:15:40;0.35;;;0.10;;
44981;SDS011;30716;41.740;-70.400;2022-09-03T05:18:08;0.17;;;0.08;;
44981;SDS011;30716;41.740;-70.400;2022-09-03T05:20:34;0.20;;;0.20;;
44981;SDS011;30716;41.740;-70.400;2022-09-03T05:23:01;0.20;;;0.20;;
44981;SDS011;30716;41.740;-70.400;2022-09-03T05:25:30;0.30;;;0.20;;
44981;SDS011;30716;41.740;-70.400;2022-09-03T05:27:57;0.20;;;0.20;;
44981;SDS011;30716;41.740;-70.400;2022-09-03T05:30:23;0.32;;;0.13;;
44981;SDS011;30716;41.740;-70.400;2022-09-03T05:32:50;0.25;;;0.13;;
44981;SDS011;30716;41.740;-70.400;2022-09-03T05:35:16;0.20;;;0.10;;
44981;SDS011;30716;41.740;-70.400;2022-09-03T05:37:43;0.50;;;0.20;;
44981;SDS011;30716;41.740;-70.400;2022-09-03T05:40:09;0.43;;;0.28;;
44981;SDS011;30716;41.740;-70.400;2022-09-03T05:42:36;0.28;;;0.10;;
44981;SDS011;30716;41.740;-70.400;2022-09-03T05:45:07;0.25;;;0.20;;
44981;SDS011;30716;41.740;-70.400;2022-09-03T05:47:35;0.30;;;0.20;;
44981;SDS011;30716;41.740;-70.400;2022-09-03T05:50:04;0.22;;;0.17;;
44981;SDS011;30716;41.740;-70.400;2022-09-03T05:52:33;0.28;;;0.10;;
44981;SDS011;30716;41.740;-70.400;2022-09-03T05:55:00;0.10;;;0.10;;
44981;SDS011;30716;41.740;-70.400;2022-09-03T05:57:27;0.40;;;0.20;;
44981;SDS011;30716;41.740;-70.400;2022-09-03T05:59:56;0.45;;;0.17;;
44981;SDS011;30716;41.740;-70.400;2022-09-03T06:02:22;1.92;;;0.30;;
44981;SDS011;30716;41.740;-70.400;2022-09-03T06:04:48;0.00;;;0.00;;
44981;SDS011;30716;41.740;-70.400;2022-09-03T06:07:15;0.30;;;0.20;;
44981;SDS011;30716;41.740;-70.400;2022-09-03T06:09:41;0.10;;;0.10;;
44981;SDS011;30716;41.740;-70.400;2022-09-03T06:12:07;0.13;;;0.10;;
44981;SDS011;30716;41.740;-70.400;2022-09-03T06:14:33;0.82;;;0.30;;
44981;SDS011;30716;41.740;-70.400;2022-09-03T06:16:59;0.43;;;0.20;;
44981;SDS011;30716;41.740;-70.400;2022-09-03T06:19:25;0.30;;;0.20;;
44981;SDS011;30716;41.740;-70.400;2022-09-03T06:21:51;0.73;;;0.32;;
44981;SDS011;30716;41.740;-70.400;2022-09-03T06:24:18;0.55;;;0.13;;
44981;SDS011;30716;41.740;-70.400;2022-09-03T06:26:48;0.20;;;0.17;;
44981;SDS011;30716;41.740;-70.400;2022-09-03T06:29:15;0.10;;;0.10;;
44981;SDS011;30716;41.740;-70.400;2022-09-03T06:31:44;0.85;;;0.13;;
44981;SDS011;30716;41.740;-70.400;2022-09-03T06:34:12;0.65;;;0.22;;
44981;SDS011;30716;41.740;-70.400;2022-09-03T06:36:39;0.38;;;0.10;;
44981;SDS011;30716;41.740;-70.400;2022-09-03T06:39:08;0.25;;;0.20;;
44981;SDS011;30716;41.740;-70.400;2022-09-03T06:41:34;0.25;;;0.10;;
44981;SDS011;30716;41.740;-70.400;2022-09-03T06:44:02;0.17;;;0.10;;
44981;SDS011;30716;41.740;-70.400;2022-09-03T06:46:30;0.10;;;0.08;;
44981;SDS011;30716;41.740;-70.400;2022-09-03T06:48:59;0.20;;;0.10;;
44981;SDS011;30716;41.740;-70.400;2022-09-03T06:51:25;0.10;;;0.10;;
44981;SDS011;30716;41.740;-70.400;2022-09-03T06:53:54;0.10;;;0.03;;
44981;SDS011;30716;41.740;-70.400;2022-09-03T06:56:24;0.32;;;0.20;;
44981;SDS011;30716;41.740;-70.400;2022-09-03T06:58:55;0.10;;;0.10;;
44981;SDS011;30716;41.740;-70.400;2022-09-03T07:01:24;0.38;;;0.20;;
44981;SDS011;30716;41.740;-70.400;2022-09-03T07:03:56;1.30;;;0.10;;
44981;SDS011;30716;41.740;-70.400;2022-09-03T07:06:25;0.17;;;0.17;;
44981;SDS011;30716;41.740;-70.400;2022-09-03T07:08:53;0.35;;;0.20;;
44981;SDS011;30716;41.740;-70.400;2022-09-03T07:11:22;0.20;;;0.10;;
44981;SDS011;30716;41.740;-70.400;2022-09-03T07:13:51;1.55;;;0.20;;
44981;SDS011;30716;41.740;-70.400;2022-09-03T07:16:39;0.55;;;0.20;;
44981;SDS011;30716;41.740;-70.400;2022-09-03T07:19:05;0.38;;;0.22;;
44981;SDS011;30716;41.740;-70.400;2022-09-03T07:21:33;0.60;;;0.22;;
44981;SDS011;30716;41.740;-70.400;2022-09-03T07:24:05;0.70;;;0.20;;
44981;SDS011;30716;41.740;-70.400;2022-09-03T07:26:34;0.60;;;0.20;;
44981;SDS011;30716;41.740;-70.400;2022-09-03T07:29:02;0.28;;;0.10;;
44981;SDS011;30716;41.740;-70.400;2022-09-03T07:31:34;0.13;;;0.10;;
44981;SDS011;30716;41.740;-70.400;2022-09-03T07:34:06;0.20;;;0.20;;
44981;SDS011;30716;41.740;-70.400;2022-09-03T07:36:38;0.30;;;0.15;;
44981;SDS011;30716;41.740;-70.400;2022-09-03T07:39:07;0.47;;;0.30;;
44981;SDS011;30716;41.740;-70.400;2022-09-03T07:41:35;0.30;;;0.20;;
44981;SDS011;30716;41.740;-70.400;2022-09-03T07:44:02;0.75;;;0.17;;
44981;SDS011;30716;41.740;-70.400;2022-09-03T07:46:32;0.90;;;0.20;;
44981;SDS011;30716;41.740;-70.400;2022-09-03T07:49:00;0.55;;;0.20;;
44981;SDS011;30716;41.740;-70.400;2022-09-03T07:51:30;0.50;;;0.30;;
44981;SDS011;30716;41.740;-70.400;2022-09-03T07:53:59;0.57;;;0.20;;
44981;SDS011;30716;41.740;-70.400;2022-09-03T07:56:31;0.20;;;0.10;;
44981;SDS011;30716;41.740;-70.400;2022-09-03T07:59:00;0.80;;;0.13;;
44981;SDS011;30716;41.740;-70.400;2022-09-03T08:01:27;0.10;;;0.10;;
44981;SDS011;30716;41.740;-70.400;2022-09-03T08:03:58;0.10;;;0.10;;
44981;SDS011;30716;41.740;-70.400;2022-09-03T08:06:25;0.10;;;0.10;;
44981;SDS011;30716;41.740;-70.400;2022-09-03T08:08:55;0.10;;;0.10;;
44981;SDS011;30716;41.740;-70.400;2022-09-03T08:13:54;0.52;;;0.20;;
44981;SDS011;30716;41.740;-70.400;2022-09-03T08:18:51;1.48;;;0.17;;
44981;SDS011;30716;41.740;-70.400;2022-09-03T08:21:19;0.15;;;0.10;;
44981;SDS011;30716;41.740;-70.400;2022-09-03T08:23:46;1.20;;;0.30;;
44981;SDS011;30716;41.740;-70.400;2022-09-03T08:26:15;0.43;;;0.28;;
44981;SDS011;30716;41.740;-70.400;2022-09-03T08:28:42;0.13;;;0.13;;
44981;SDS011;30716;41.740;-70.400;2022-09-03T08:33:46;0.40;;;0.20;;
44981;SDS011;30716;41.740;-70.400;2022-09-03T08:36:16;0.75;;;0.30;;
44981;SDS011;30716;41.740;-70.400;2022-09-03T08:38:44;0.35;;;0.20;;
44981;SDS011;30716;41.740;-70.400;2022-09-03T08:41:15;0.75;;;0.20;;
44981;SDS011;30716;41.740;-70.400;2022-09-03T08:49:39;0.35;;;0.20;;
44981;SDS011;30716;41.740;-70.400;2022-09-03T08:54:47;0.20;;;0.13;;
44981;SDS011;30716;41.740;-70.400;2022-09-03T08:57:15;0.30;;;0.22;;
44981;SDS011;30716;41.740;-70.400;2022-09-03T08:59:45;0.28;;;0.10;;
44981;SDS011;30716;41.740;-70.400;2022-09-03T09:02:22;0.55;;;0.20;;
44981;SDS011;30716;41.740;-70.400;2022-09-03T09:05:18;0.22;;;0.10;;
44981;SDS011;30716;41.740;-70.400;2022-09-03T09:08:03;0.50;;;0.20;;
44981;SDS011;30716;41.740;-70.400;2022-09-03T09:10:58;0.25;;;0.15;;
44981;SDS011;30716;41.740;-70.400;2022-09-03T09:13:45;0.80;;;0.20;;
44981;SDS011;30716;41.740;-70.400;2022-09-03T09:16:23;0.13;;;0.10;;
44981;SDS011;30716;41.740;-70.400;2022-09-03T09:22:33;0.10;;;0.10;;
44981;SDS011;30716;41.740;-70.400;2022-09-03T09:24:48;0.32;;;0.20;;
44981;SDS011;30716;41.740;-70.400;2022-09-03T09:27:18;0.60;;;0.17;;
44981;SDS011;30716;41.740;-70.400;2022-09-03T09:29:48;1.33;;;0.20;;
44981;SDS011;30716;41.740;-70.400;2022-09-03T09:32:16;0.10;;;0.10;;
44981;SDS011;30716;41.740;-70.400;2022-09-03T09:34:44;0.13;;;0.10;;
44981;SDS011;30716;41.740;-70.400;2022-09-03T09:37:11;0.30;;;0.20;;
44981;SDS011;30716;41.740;-70.400;2022-09-03T09:39:40;0.40;;;0.10;;
44981;SDS011;30716;41.740;-70.400;2022-09-03T09:42:19;0.60;;;0.17;;
44981;SDS011;30716;41.740;-70.400;2022-09-03T09:44:51;0.25;;;0.13;;
44981;SDS011;30716;41.740;-70.400;2022-09-03T09:47:27;0.30;;;0.20;;
44981;SDS011;30716;41.740;-70.400;2022-09-03T09:50:00;0.22;;;0.20;;
44981;SDS011;30716;41.740;-70.400;2022-09-03T09:52:28;0.30;;;0.10;;
44981;SDS011;30716;41.740;-70.400;2022-09-03T09:55:09;0.28;;;0.10;;
44981;SDS011;30716;41.740;-70.400;2022-09-03T09:57:40;1.40;;;0.35;;
44981;SDS011;30716;41.740;-70.400;2022-09-03T10:00:07;0.88;;;0.20;;
44981;SDS011;30716;41.740;-70.400;2022-09-03T10:02:38;0.30;;;0.13;;
44981;SDS011;30716;41.740;-70.400;2022-09-03T10:05:12;0.22;;;0.17;;
44981;SDS011;30716;41.740;-70.400;2022-09-03T10:07:52;0.22;;;0.20;;
44981;SDS011;30716;41.740;-70.400;2022-09-03T10:10:28;0.68;;;0.40;;
44981;SDS011;30716;41.740;-70.400;2022-09-03T10:23:46;0.50;;;0.20;;
44981;SDS011;30716;41.740;-70.400;2022-09-03T10:26:23;0.22;;;0.15;;
44981;SDS011;30716;41.740;-70.400;2022-09-03T10:28:59;0.70;;;0.30;;
44981;SDS011;30716;41.740;-70.400;2022-09-03T10:31:31;0.68;;;0.32;;
44981;SDS011;30716;41.740;-70.400;2022-09-03T10:45:38;0.10;;;0.10;;
44981;SDS011;30716;41.740;-70.400;2022-09-03T11:00:28;0.52;;;0.20;;
44981;SDS011;30716;41.740;-70.400;2022-09-03T11:05:05;0.30;;;0.20;;
44981;SDS011;30716;41.740;-70.400;2022-09-03T11:07:38;0.55;;;0.10;;
44981;SDS011;30716;41.740;-70.400;2022-09-03T11:12:47;0.20;;;0.10;;
44981;SDS011;30716;41.740;-70.400;2022-09-03T11:18:43;0.38;;;0.30;;
44981;SDS011;30716;41.740;-70.400;2022-09-03T11:20:53;0.22;;;0.13;;
44981;SDS011;30716;41.740;-70.400;2022-09-03T11:23:26;0.43;;;0.25;;
44981;SDS011;30716;41.740;-70.400;2022-09-03T11:25:55;0.35;;;0.20;;
44981;SDS011;30716;41.740;-70.400;2022-09-03T11:28:29;0.20;;;0.10;;
44981;SDS011;30716;41.740;-70.400;2022-09-03T11:34:26;0.52;;;0.10;;
44981;SDS011;30716;41.740;-70.400;2022-09-03T11:37:05;0.30;;;0.10;;
44981;SDS011;30716;41.740;-70.400;2022-09-03T11:39:43;0.57;;;0.28;;
44981;SDS011;30716;41.740;-70.400;2022-09-03T11:42:11;0.50;;;0.20;;
44981;SDS011;30716;41.740;-70.400;2022-09-03T11:44:49;0.38;;;0.30;;
44981;SDS011;30716;41.740;-70.400;2022-09-03T11:49:50;0.80;;;0.40;;
44981;SDS011;30716;41.740;-70.400;2022-09-03T11:52:24;0.40;;;0.10;;
44981;SDS011;30716;41.740;-70.400;2022-09-03T11:54:52;0.20;;;0.20;;
44981;SDS011;30716;41.740;-70.400;2022-09-03T11:57:26;0.40;;;0.15;;
44981;SDS011;30716;41.740;-70.400;2022-09-03T11:59:54;0.20;;;0.10;;
44981;SDS011;30716;41.740;-70.400;2022-09-03T12:03:12;0.22;;;0.10;;
44981;SDS011;30716;41.740;-70.400;2022-09-03T12:05:35;0.20;;;0.10;;
44981;SDS011;30716;41.740;-70.400;2022-09-03T12:08:19;0.20;;;0.10;;
44981;SDS011;30716;41.740;-70.400;2022-09-03T12:11:19;0.90;;;0.20;;
44981;SDS011;30716;41.740;-70.400;2022-09-03T12:17:10;0.10;;;0.10;;
44981;SDS011;30716;41.740;-70.400;2022-09-03T12:19:41;0.52;;;0.22;;
44981;SDS011;30716;41.740;-70.400;2022-09-03T12:22:17;0.55;;;0.10;;
44981;SDS011;30716;41.740;-70.400;2022-09-03T12:24:46;0.17;;;0.08;;
44981;SDS011;30716;41.740;-70.400;2022-09-03T12:27:19;0.13;;;0.03;;
44981;SDS011;30716;41.740;-70.400;2022-09-03T12:29:56;0.63;;;0.20;;
44981;SDS011;30716;41.740;-70.400;2022-09-03T12:32:28;0.10;;;0.10;;
44981;SDS011;30716;41.740;-70.400;2022-09-03T12:35:08;0.20;;;0.17;;
44981;SDS011;30716;41.740;-70.400;2022-09-03T12:37:50;0.60;;;0.20;;
44981;SDS011;30716;41.740;-70.400;2022-09-03T12:40:21;0.43;;;0.25;;
44981;SDS011;30716;41.740;-70.400;2022-09-03T12:42:50;0.25;;;0.10;;
44981;SDS011;30716;41.740;-70.400;2022-09-03T12:45:21;0.22;;;0.10;;
44981;SDS011;30716;41.740;-70.400;2022-09-03T12:47:49;0.10;;;0.10;;
44981;SDS011;30716;41.740;-70.400;2022-09-03T12:50:23;0.47;;;0.15;;
44981;SDS011;30716;41.740;-70.400;2022-09-03T12:55:28;0.20;;;0.10;;
44981;SDS011;30716;41.740;-70.400;2022-09-03T12:57:59;0.20;;;0.10;;
44981;SDS011;30716;41.740;-70.400;2022-09-03T13:04:02;0.52;;;0.22;;
44981;SDS011;30716;41.740;-70.400;2022-09-03T13:06:43;0.30;;;0.20;;
44981;SDS011;30716;41.740;-70.400;2022-09-03T13:09:24;0.15;;;0.10;;
44981;SDS011;30716;41.740;-70.400;2022-09-03T13:11:54;0.30;;;0.10;;
44981;SDS011;30716;41.740;-70.400;2022-09-03T13:14:24;0.35;;;0.10;;
44981;SDS011;30716;41.740;-70.400;2022-09-03T13:19:22;0.10;;;0.00;;
44981;SDS011;30716;41.740;-70.400;2022-09-03T13:30:54;0.43;;;0.20;;
44981;SDS011;30716;41.740;-70.400;2022-09-03T13:33:42;0.03;;;0.00;;
44981;SDS011;30716;41.740;-70.400;2022-09-03T13:36:18;0.52;;;0.28;;
44981;SDS011;30716;41.740;-70.400;2022-09-03T13:39:02;0.28;;;0.15;;
44981;SDS011;30716;41.740;-70.400;2022-09-03T13:41:48;0.10;;;0.10;;
44981;SDS011;30716;41.740;-70.400;2022-09-03T13:53:00;0.20;;;0.13;;
44981;SDS011;30716;41.740;-70.400;2022-09-03T13:58:05;0.40;;;0.20;;
44981;SDS011;30716;41.740;-70.400;2022-09-03T14:00:36;0.20;;;0.20;;
44981;SDS011;30716;41.740;-70.400;2022-09-03T14:03:14;1.25;;;0.40;;
44981;SDS011;30716;41.740;-70.400;2022-09-03T14:06:04;1.23;;;0.60;;
44981;SDS011;30716;41.740;-70.400;2022-09-03T14:08:44;1.35;;;0.60;;
44981;SDS011;30716;41.740;-70.400;2022-09-03T14:11:29;5.57;;;1.42;;
44981;SDS011;30716;41.740;-70.400;2022-09-03T14:14:11;4.90;;;1.25;;
44981;SDS011;30716;41.740;-70.400;2022-09-03T14:19:44;5.28;;;1.90;;
44981;SDS011;30716;41.740;-70.400;2022-09-03T14:24:55;13.98;;;3.22;;
44981;SDS011;30716;41.740;-70.400;2022-09-03T14:27:27;7.47;;;2.13;;
44981;SDS011;30716;41.740;-70.400;2022-09-03T14:29:59;9.35;;;1.90;;
44981;SDS011;30716;41.740;-70.400;2022-09-03T14:32:31;9.60;;;1.60;;
44981;SDS011;30716;41.740;-70.400;2022-09-03T14:35:21;7.18;;;1.83;;
44981;SDS011;30716;41.740;-70.400;2022-09-03T14:38:12;6.47;;;1.65;;
44981;SDS011;30716;41.740;-70.400;2022-09-03T14:46:23;9.02;;;1.73;;
44981;SDS011;30716;41.740;-70.400;2022-09-03T15:00:01;11.43;;;2.50;;
44981;SDS011;30716;41.740;-70.400;2022-09-03T15:10:29;8.18;;;2.60;;
44981;SDS011;30716;41.740;-70.400;2022-09-03T15:15:53;9.43;;;2.58;;
44981;SDS011;30716;41.740;-70.400;2022-09-03T15:21:11;6.65;;;1.80;;
44981;SDS011;30716;41.740;-70.400;2022-09-03T15:26:40;9.57;;;2.35;;
44981;SDS011;30716;41.740;-70.400;2022-09-03T15:29:37;7.75;;;3.22;;
44981;SDS011;30716;41.740;-70.400;2022-09-03T15:34:47;4.53;;;1.70;;
44981;SDS011;30716;41.740;-70.400;2022-09-03T15:40:02;5.65;;;1.55;;
44981;SDS011;30716;41.740;-70.400;2022-09-03T15:42:40;10.23;;;1.60;;
44981;SDS011;30716;41.740;-70.400;2022-09-03T15:45:27;7.20;;;2.03;;
44981;SDS011;30716;41.740;-70.400;2022-09-03T15:48:18;4.85;;;1.55;;
44981;SDS011;30716;41.740;-70.400;2022-09-03T15:53:52;4.90;;;2.00;;
44981;SDS011;30716;41.740;-70.400;2022-09-03T16:14:27;4.50;;;1.77;;
44981;SDS011;30716;41.740;-70.400;2022-09-03T16:28:06;4.95;;;1.33;;
44981;SDS011;30716;41.740;-70.400;2022-09-03T16:44:13;4.53;;;2.65;;
44981;SDS011;30716;41.740;-70.400;2022-09-03T16:47:07;4.28;;;1.65;;
44981;SDS011;30716;41.740;-70.400;2022-09-03T16:52:29;4.68;;;2.05;;
44981;SDS011;30716;41.740;-70.400;2022-09-03T16:55:13;4.90;;;1.55;;
44981;SDS011;30716;41.740;-70.400;2022-09-03T17:00:36;3.75;;;1.25;;
44981;SDS011;30716;41.740;-70.400;2022-09-03T17:17:22;2.08;;;1.00;;
44981;SDS011;30716;41.740;-70.400;2022-09-03T17:22:55;4.00;;;1.15;;
44981;SDS011;30716;41.740;-70.400;2022-09-03T17:25:37;8.23;;;2.67;;
44981;SDS011;30716;41.740;-70.400;2022-09-03T17:28:08;7.60;;;1.45;;
44981;SDS011;30716;41.740;-70.400;2022-09-03T17:31:07;3.33;;;0.90;;
44981;SDS011;30716;41.740;-70.400;2022-09-03T17:36:11;3.80;;;1.38;;
44981;SDS011;30716;41.740;-70.400;2022-09-03T17:41:49;3.00;;;1.05;;
44981;SDS011;30716;41.740;-70.400;2022-09-03T17:51:16;3.58;;;1.17;;
44981;SDS011;30716;41.740;-70.400;2022-09-03T17:53:52;3.38;;;1.42;;
44981;SDS011;30716;41.740;-70.400;2022-09-03T17:56:24;5.93;;;0.95;;
44981;SDS011;30716;41.740;-70.400;2022-09-03T17:59:03;6.22;;;1.20;;
44981;SDS011;30716;41.740;-70.400;2022-09-03T18:01:57;3.55;;;1.35;;
44981;SDS011;30716;41.740;-70.400;2022-09-03T18:04:53;3.03;;;1.10;;
44981;SDS011;30716;41.740;-70.400;2022-09-03T18:15:51;4.10;;;1.00;;
44981;SDS011;30716;41.740;-70.400;2022-09-03T18:18:29;5.78;;;1.42;;
44981;SDS011;30716;41.740;-70.400;2022-09-03T18:20:57;2.50;;;1.15;;
44981;SDS011;30716;41.740;-70.400;2022-09-03T18:26:53;2.17;;;1.10;;
44981;SDS011;30716;41.740;-70.400;2022-09-03T18:32:31;2.90;;;0.88;;
44981;SDS011;30716;41.740;-70.400;2022-09-03T18:35:16;4.55;;;1.10;;
44981;SDS011;30716;41.740;-70.400;2022-09-03T18:38:04;3.28;;;1.20;;
44981;SDS011;30716;41.740;-70.400;2022-09-03T18:40:51;3.90;;;1.10;;
44981;SDS011;30716;41.740;-70.400;2022-09-03T18:44:08;2.92;;;1.52;;
44981;SDS011;30716;41.740;-70.400;2022-09-03T18:59:17;1.88;;;0.82;;
44981;SDS011;30716;41.740;-70.400;2022-09-03T19:02:44;1.75;;;0.80;;
44981;SDS011;30716;41.740;-70.400;2022-09-03T19:05:36;2.45;;;0.82;;
44981;SDS011;30716;41.740;-70.400;2022-09-03T19:11:46;2.65;;;1.20;;
44981;SDS011;30716;41.740;-70.400;2022-09-03T19:14:47;2.17;;;1.25;;
44981;SDS011;30716;41.740;-70.400;2022-09-03T19:20:29;2.95;;;1.13;;
44981;SDS011;30716;41.740;-70.400;2022-09-03T19:23:15;1.30;;;0.80;;
44981;SDS011;30716;41.740;-70.400;2022-09-03T19:26:12;3.45;;;1.48;;
44981;SDS011;30716;41.740;-70.400;2022-09-03T19:29:36;1.50;;;0.63;;
44981;SDS011;30716;41.740;-70.400;2022-09-03T19:32:39;2.47;;;0.77;;
44981;SDS011;30716;41.740;-70.400;2022-09-03T19:36:20;2.95;;;0.80;;
44981;SDS011;30716;41.740;-70.400;2022-09-03T19:38:56;2.97;;;0.70;;
44981;SDS011;30716;41.740;-70.400;2022-09-03T19:42:09;2.65;;;0.80;;
44981;SDS011;30716;41.740;-70.400;2022-09-03T19:51:29;2.50;;;0.77;;
44981;SDS011;30716;41.740;-70.400;2022-09-03T19:54:23;1.67;;;0.70;;
44981;SDS011;30716;41.740;-70.400;2022-09-03T19:57:13;2.80;;;0.90;;
44981;SDS011;30716;41.740;-70.400;2022-09-03T20:00:01;1.90;;;0.70;;
44981;SDS011;30716;41.740;-70.400;2022-09-03T20:02:48;2.75;;;0.95;;
44981;SDS011;30716;41.740;-70.400;2022-09-03T20:05:34;2.90;;;0.80;;
44981;SDS011;30716;41.740;-70.400;2022-09-03T20:08:20;2.10;;;0.75;;
44981;SDS011;30716;41.740;-70.400;2022-09-03T20:11:07;1.48;;;0.55;;
44981;SDS011;30716;41.740;-70.400;2022-09-03T20:13:40;1.85;;;0.65;;
44981;SDS011;30716;41.740;-70.400;2022-09-03T20:16:30;2.60;;;0.80;;
44981;SDS011;30716;41.740;-70.400;2022-09-03T20:19:20;3.25;;;0.95;;
44981;SDS011;30716;41.740;-70.400;2022-09-03T20:22:07;0.88;;;0.50;;
44981;SDS011;30716;41.740;-70.400;2022-09-03T20:32:37;3.30;;;0.90;;